Time;durP1;ratioP1;P1;durP2;ratioP2;P2;SDS_P1;SDS_P2;PMS_P1;PMS_P2;Temp;Humidity;BMP_temperature;BMP_pressure;BME280_temperature;BME280_humidity;BME280_pressure;Samples;Min_cycle;Max_cycle;Signal;HPM_P1;HPM_P2
2022/01/25 00:28:38;;;;;;;51.80;28.00;;;;;;;;;;5131697;27;20082;-62
2022/01/25 00:31:18;;;;;;;50.50;28.42;;;;;;;;;;5132575;27;20047;-60
2022/01/25 00:33:46;;;;;;;49.83;27.92;;;;;;;;;;5132963;27;20122;-62
2022/01/25 00:36:14;;;;;;;54.95;29.75;;;;;;;;;;5132978;27;20031;-60
2022/01/25 00:38:40;;;;;;;53.63;29.45;;;;;;;;;;5131307;27;20374;-60
2022/01/25 00:41:06;;;;;;;56.03;30.25;;;;;;;;;;5131580;27;20055;-61
2022/01/25 00:43:32;;;;;;;52.40;30.10;;;;;;;;;;5131711;27;20065;-63
2022/01/25 00:46:08;;;;;;;52.75;29.73;;;;;;;;;;5132573;27;20122;-62
2022/01/25 00:54:15;;;;;;;50.33;29.42;;;;;;;;;;5132190;27;20043;-62
2022/01/25 00:56:44;;;;;;;54.70;29.63;;;;;;;;;;5132279;27;20047;-62
2022/01/25 00:59:11;;;;;;;52.28;29.38;;;;;;;;;;5131245;27;20035;-60
2022/01/25 01:01:38;;;;;;;50.50;29.63;;;;;;;;;;5131551;27;20043;-61
2022/01/25 01:04:04;;;;;;;53.08;30.65;;;;;;;;;;5131290;27;20035;-62
2022/01/25 01:06:30;;;;;;;52.80;29.92;;;;;;;;;;5131730;27;20130;-62
2022/01/25 01:08:57;;;;;;;50.78;29.33;;;;;;;;;;5132268;27;20832;-61
2022/01/25 01:11:30;;;;;;;54.42;30.20;;;;;;;;;;5130399;27;20439;-60
2022/01/25 01:30:16;;;;;;;56.08;29.65;;;;;;;;;;5129369;27;20043;-61
2022/01/25 01:45:58;;;;;;;51.75;28.73;;;;;;;;;;5132178;27;20046;-61
2022/01/25 01:48:34;;;;;;;54.65;29.02;;;;;;;;;;5129863;27;20114;-60
2022/01/25 01:51:06;;;;;;;50.95;28.58;;;;;;;;;;5132177;27;20148;-61
2022/01/25 01:53:33;;;;;;;52.60;28.65;;;;;;;;;;5128968;27;20043;-62
2022/01/25 01:55:59;;;;;;;50.08;27.17;;;;;;;;;;5132066;27;20393;-60
2022/01/25 01:58:25;;;;;;;53.22;29.63;;;;;;;;;;5130246;27;20043;-60
2022/01/25 02:00:52;;;;;;;47.55;27.90;;;;;;;;;;5131770;27;20050;-62
2022/01/25 02:03:18;;;;;;;52.30;28.60;;;;;;;;;;5130900;27;20042;-62
2022/01/25 02:05:44;;;;;;;53.75;29.52;;;;;;;;;;5130738;27;20046;-61
2022/01/25 02:08:11;;;;;;;54.95;28.85;;;;;;;;;;5130634;27;20035;-61
2022/01/25 02:10:37;;;;;;;50.72;28.33;;;;;;;;;;5130935;27;20039;-61
2022/01/25 02:13:07;;;;;;;52.92;28.17;;;;;;;;;;5130537;27;20088;-61
2022/01/25 02:15:35;;;;;;;51.20;28.13;;;;;;;;;;5126530;27;20445;-61
2022/01/25 02:23:30;;;;;;;53.03;27.95;;;;;;;;;;5129569;27;20114;-62
2022/01/25 02:25:58;;;;;;;51.58;28.63;;;;;;;;;;5129414;27;20035;-61
2022/01/25 02:28:25;;;;;;;51.00;28.38;;;;;;;;;;5131493;27;20548;-61
2022/01/25 02:30:52;;;;;;;52.58;29.52;;;;;;;;;;5130450;27;20035;-61
2022/01/25 02:33:18;;;;;;;50.33;28.30;;;;;;;;;;5131654;27;20027;-62
2022/01/25 02:35:44;;;;;;;56.15;29.63;;;;;;;;;;5130115;27;20046;-60
2022/01/25 02:38:10;;;;;;;51.97;28.33;;;;;;;;;;5131305;27;20035;-62
2022/01/25 02:40:36;;;;;;;52.97;28.13;;;;;;;;;;5130559;27;20045;-61
2022/01/25 02:43:02;;;;;;;55.08;30.15;;;;;;;;;;5112712;28;20044;-63
2022/01/25 02:45:34;;;;;;;53.78;28.85;;;;;;;;;;5128260;27;20064;-61
2022/01/25 02:50:45;;;;;;;50.88;28.10;;;;;;;;;;5130143;27;20039;-61
2022/01/25 02:53:11;;;;;;;50.00;27.90;;;;;;;;;;5131184;28;20497;-62
2022/01/25 02:55:39;;;;;;;55.15;27.80;;;;;;;;;;5128841;28;20042;-63
2022/01/25 02:58:05;;;;;;;54.78;29.85;;;;;;;;;;5131086;28;20050;-61
2022/01/25 03:00:31;;;;;;;55.28;28.38;;;;;;;;;;5129809;27;20047;-61
2022/01/25 03:02:57;;;;;;;51.30;27.75;;;;;;;;;;5130082;28;20058;-62
2022/01/25 03:05:23;;;;;;;51.80;28.50;;;;;;;;;;5130001;28;20068;-62
2022/01/25 03:07:49;;;;;;;50.40;27.15;;;;;;;;;;5129739;28;20146;-61
2022/01/25 03:10:16;;;;;;;54.28;28.17;;;;;;;;;;5130331;28;20110;-61
2022/01/25 03:12:48;;;;;;;54.50;29.25;;;;;;;;;;5129575;28;20035;-61
2022/01/25 03:17:49;;;;;;;55.58;27.80;;;;;;;;;;5128525;28;20012;-62
2022/01/25 03:20:21;;;;;;;54.45;28.23;;;;;;;;;;5128293;27;20043;-61
2022/01/25 03:25:20;;;;;;;55.17;28.23;;;;;;;;;;5113222;28;20382;-60
2022/01/25 03:27:46;;;;;;;56.05;28.55;;;;;;;;;;5129231;28;20092;-59
2022/01/25 03:30:12;;;;;;;61.22;30.90;;;;;;;;;;5129849;27;20031;-61
2022/01/25 03:32:38;;;;;;;56.38;29.35;;;;;;;;;;5134722;27;20114;-61
2022/01/25 03:35:04;;;;;;;56.03;30.45;;;;;;;;;;5132849;27;20071;-60
2022/01/25 03:37:30;;;;;;;58.85;31.10;;;;;;;;;;5134624;27;20035;-61
2022/01/25 03:39:56;;;;;;;58.70;29.45;;;;;;;;;;5133818;27;20045;-61
2022/01/25 03:42:24;;;;;;;56.53;30.67;;;;;;;;;;5134848;27;20035;-60
2022/01/25 03:44:50;;;;;;;59.03;30.92;;;;;;;;;;5132860;27;20046;-62
2022/01/25 03:47:20;;;;;;;58.42;30.90;;;;;;;;;;5133708;27;20068;-59
2022/01/25 03:49:50;;;;;;;59.33;30.88;;;;;;;;;;5132727;27;20497;-60
2022/01/25 03:52:21;;;;;;;61.22;31.65;;;;;;;;;;5133468;27;20366;-60
2022/01/25 03:54:48;;;;;;;57.10;29.88;;;;;;;;;;5132465;27;20074;-61
2022/01/25 03:57:14;;;;;;;55.97;29.30;;;;;;;;;;5134363;27;20043;-61
2022/01/25 03:59:40;;;;;;;59.85;30.38;;;;;;;;;;5133193;27;20062;-61
2022/01/25 04:02:06;;;;;;;53.22;29.25;;;;;;;;;;5134252;27;20118;-62
2022/01/25 04:04:34;;;;;;;58.92;31.40;;;;;;;;;;5133212;27;20550;-60
2022/01/25 04:07:08;;;;;;;57.10;28.83;;;;;;;;;;5132487;27;20114;-61
2022/01/25 04:09:34;;;;;;;58.30;30.33;;;;;;;;;;5120016;27;20039;-60
2022/01/25 04:12:01;;;;;;;59.67;32.13;;;;;;;;;;5127345;27;20048;-61
2022/01/25 04:14:28;;;;;;;58.00;30.88;;;;;;;;;;5134018;27;20047;-60
2022/01/25 04:17:05;;;;;;;58.83;28.85;;;;;;;;;;5132993;27;20027;-60
2022/01/25 04:25:05;;;;;;;54.63;29.08;;;;;;;;;;5130496;27;20043;-61
2022/01/25 04:27:27;;;;;;;58.42;28.70;;;;;;;;;;5128623;27;20408;-62
2022/01/25 04:29:53;;;;;;;54.42;28.95;;;;;;;;;;5131928;27;20041;-60
2022/01/25 04:32:21;;;;;;;57.30;30.63;;;;;;;;;;5132029;27;20122;-62
2022/01/25 04:35:09;;;;;;;57.65;29.95;;;;;;;;;;5131643;27;20039;-61
2022/01/25 04:53:58;;;;;;;58.28;29.42;;;;;;;;;;5129823;27;20050;-61
2022/01/25 04:59:20;;;;;;;55.10;29.15;;;;;;;;;;5070177;28;20055;-59
2022/01/25 05:01:47;;;;;;;54.92;28.77;;;;;;;;;;5085421;28;20412;-61
2022/01/25 05:04:21;;;;;;;59.53;29.63;;;;;;;;;;5077930;28;20052;-60
2022/01/25 05:06:50;;;;;;;55.00;29.45;;;;;;;;;;5084992;28;20047;-61
2022/01/25 05:09:18;;;;;;;59.53;29.42;;;;;;;;;;5082348;28;20052;-62
2022/01/25 05:11:47;;;;;;;58.53;29.75;;;;;;;;;;5069842;28;20540;-61
2022/01/25 05:16:56;;;;;;;56.83;29.85;;;;;;;;;;5079964;28;20052;-62
2022/01/25 05:22:03;;;;;;;56.83;29.17;;;;;;;;;;5088713;28;20111;-61
2022/01/25 05:24:37;;;;;;;59.97;29.63;;;;;;;;;;5069153;28;20411;-61
2022/01/25 05:27:06;;;;;;;59.75;29.55;;;;;;;;;;5073062;28;20052;-60
2022/01/25 05:29:32;;;;;;;59.78;29.42;;;;;;;;;;5070307;28;20044;-61
2022/01/25 05:31:59;;;;;;;56.10;29.77;;;;;;;;;;5073478;28;20047;-61
2022/01/25 05:34:25;;;;;;;56.97;30.20;;;;;;;;;;5070854;28;20060;-62
2022/01/25 05:36:51;;;;;;;62.05;29.52;;;;;;;;;;5108834;27;20039;-61
2022/01/25 05:39:23;;;;;;;59.97;29.67;;;;;;;;;;5130410;27;20039;-61
2022/01/25 05:41:56;;;;;;;56.05;28.63;;;;;;;;;;5130773;27;20546;-61
2022/01/25 05:44:27;;;;;;;57.85;29.58;;;;;;;;;;5130824;27;20096;-61
2022/01/25 05:49:22;;;;;;;53.90;26.75;;;;;;;;;;5131298;27;20160;-61
2022/01/25 05:51:49;;;;;;;57.53;29.63;;;;;;;;;;5128570;27;20068;-62
2022/01/25 05:54:15;;;;;;;57.15;28.73;;;;;;;;;;5129168;27;20042;-63
2022/01/25 05:56:41;;;;;;;58.15;28.80;;;;;;;;;;5131029;27;20446;-61
2022/01/25 05:59:07;;;;;;;57.80;28.30;;;;;;;;;;5130657;27;20550;-61
2022/01/25 06:01:34;;;;;;;53.92;28.02;;;;;;;;;;5129392;27;20401;-62
2022/01/25 06:04:01;;;;;;;55.75;27.55;;;;;;;;;;5115792;27;20075;-61
2022/01/25 06:06:28;;;;;;;57.40;29.52;;;;;;;;;;5131539;27;20035;-61
2022/01/25 06:08:54;;;;;;;57.28;28.15;;;;;;;;;;5130949;27;20032;-62
2022/01/25 06:11:20;;;;;;;57.55;28.20;;;;;;;;;;5113372;27;20131;-61
2022/01/25 06:13:47;;;;;;;53.03;26.30;;;;;;;;;;5128824;27;20441;-60
2022/01/25 06:16:13;;;;;;;56.85;29.50;;;;;;;;;;5130353;27;20046;-61
2022/01/25 06:18:39;;;;;;;58.38;26.38;;;;;;;;;;5129057;27;20113;-62
2022/01/25 06:21:05;;;;;;;60.60;29.25;;;;;;;;;;5131455;27;20565;-62
2022/01/25 06:23:31;;;;;;;57.45;29.20;;;;;;;;;;5130995;27;20137;-61
2022/01/25 06:25:57;;;;;;;55.05;28.02;;;;;;;;;;5130989;27;20038;-62
2022/01/25 06:28:23;;;;;;;55.10;28.23;;;;;;;;;;5131026;27;20036;-62
2022/01/25 06:30:49;;;;;;;57.33;29.45;;;;;;;;;;5131262;27;20041;-62
2022/01/25 06:33:15;;;;;;;55.65;27.90;;;;;;;;;;5128661;27;20046;-62
2022/01/25 06:35:44;;;;;;;55.33;27.35;;;;;;;;;;5122033;27;20100;-62
2022/01/25 06:38:11;;;;;;;58.58;29.40;;;;;;;;;;5112615;27;20052;-63
2022/01/25 06:40:37;;;;;;;59.38;28.88;;;;;;;;;;5131407;27;20118;-61
2022/01/25 06:43:03;;;;;;;60.33;29.25;;;;;;;;;;5121465;27;20046;-61
2022/01/25 06:45:29;;;;;;;58.20;29.75;;;;;;;;;;5129194;27;20043;-62
2022/01/25 06:47:55;;;;;;;56.70;28.73;;;;;;;;;;5131221;27;20031;-62
2022/01/25 06:50:24;;;;;;;56.08;27.60;;;;;;;;;;5131388;27;20039;-61
2022/01/25 06:52:51;;;;;;;58.00;28.05;;;;;;;;;;5131299;27;20139;-61
2022/01/25 06:55:18;;;;;;;56.50;29.13;;;;;;;;;;5113996;28;20761;-62
2022/01/25 06:57:44;;;;;;;58.45;27.77;;;;;;;;;;5130839;28;20043;-62
2022/01/25 07:00:12;;;;;;;55.72;28.42;;;;;;;;;;5130549;28;20139;-62
2022/01/25 07:02:38;;;;;;;58.22;29.25;;;;;;;;;;5131177;28;20122;-62
2022/01/25 07:05:05;;;;;;;59.63;29.67;;;;;;;;;;5125599;27;20058;-62
2022/01/25 07:07:31;;;;;;;57.05;28.13;;;;;;;;;;5133115;27;20034;-62
2022/01/25 07:09:57;;;;;;;58.33;27.60;;;;;;;;;;5131927;27;20061;-61
2022/01/25 07:12:24;;;;;;;57.13;28.40;;;;;;;;;;5135025;27;20049;-62
2022/01/25 07:14:50;;;;;;;52.63;27.05;;;;;;;;;;5134528;27;20385;-61
2022/01/25 07:17:16;;;;;;;56.50;28.13;;;;;;;;;;5108435;27;20043;-62
2022/01/25 07:19:42;;;;;;;60.78;30.23;;;;;;;;;;5133169;27;20097;-61
2022/01/25 07:22:08;;;;;;;62.00;29.67;;;;;;;;;;5134347;27;20081;-61
2022/01/25 07:24:35;;;;;;;60.85;31.10;;;;;;;;;;5133850;27;20039;-62
2022/01/25 07:27:01;;;;;;;60.17;27.88;;;;;;;;;;5134715;27;20122;-62
2022/01/25 07:29:27;;;;;;;62.58;30.67;;;;;;;;;;5133780;27;20038;-61
2022/01/25 07:31:53;;;;;;;55.00;27.58;;;;;;;;;;5134568;27;20084;-62
2022/01/25 07:34:20;;;;;;;58.80;28.85;;;;;;;;;;5133520;27;20098;-61
2022/01/25 07:36:46;;;;;;;58.30;29.08;;;;;;;;;;5132225;27;20041;-62
2022/01/25 07:39:12;;;;;;;55.90;28.55;;;;;;;;;;5134230;27;20126;-63
2022/01/25 07:41:38;;;;;;;59.08;28.30;;;;;;;;;;5133777;27;20039;-61
2022/01/25 07:44:05;;;;;;;58.38;28.77;;;;;;;;;;5134057;27;20493;-63
2022/01/25 07:46:31;;;;;;;57.97;29.40;;;;;;;;;;5132751;27;20117;-63
2022/01/25 07:48:57;;;;;;;57.80;28.27;;;;;;;;;;5133239;27;20524;-59
2022/01/25 07:51:26;;;;;;;56.45;28.05;;;;;;;;;;5133911;27;20039;-61
2022/01/25 07:53:52;;;;;;;61.42;28.80;;;;;;;;;;5133455;27;20160;-63
2022/01/25 07:56:18;;;;;;;57.40;29.27;;;;;;;;;;5134085;27;20113;-62
2022/01/25 07:58:44;;;;;;;58.72;29.75;;;;;;;;;;5133727;27;20063;-60
2022/01/25 08:01:10;;;;;;;59.10;28.92;;;;;;;;;;5133799;27;20043;-61
2022/01/25 08:03:37;;;;;;;59.38;29.23;;;;;;;;;;5132602;27;20198;-63
2022/01/25 08:06:03;;;;;;;61.70;28.77;;;;;;;;;;5132794;27;20042;-63
2022/01/25 08:08:29;;;;;;;59.00;29.73;;;;;;;;;;5133088;27;20031;-62
2022/01/25 08:10:55;;;;;;;58.45;29.52;;;;;;;;;;5116194;27;20574;-62
2022/01/25 08:13:21;;;;;;;60.67;30.27;;;;;;;;;;5133881;27;20031;-61
2022/01/25 08:15:48;;;;;;;63.97;31.45;;;;;;;;;;5133724;27;20032;-62
2022/01/25 08:18:14;;;;;;;59.55;29.13;;;;;;;;;;5132834;27;20038;-63
2022/01/25 08:20:40;;;;;;;61.35;29.73;;;;;;;;;;5121209;27;20043;-62
2022/01/25 08:23:07;;;;;;;62.00;28.15;;;;;;;;;;5133172;27;20038;-62
2022/01/25 08:25:34;;;;;;;60.35;30.42;;;;;;;;;;5133092;27;20039;-63
2022/01/25 08:28:00;;;;;;;62.97;30.58;;;;;;;;;;5133291;27;20032;-62
2022/01/25 08:30:26;;;;;;;62.60;29.98;;;;;;;;;;5117150;27;20066;-63
2022/01/25 08:32:52;;;;;;;61.80;30.20;;;;;;;;;;5127898;27;20034;-61
2022/01/25 08:35:19;;;;;;;60.42;29.20;;;;;;;;;;5130661;27;20046;-64
2022/01/25 08:37:45;;;;;;;59.05;28.27;;;;;;;;;;5130574;27;20051;-63
2022/01/25 08:40:12;;;;;;;63.13;29.88;;;;;;;;;;5133005;27;20031;-63
2022/01/25 08:42:38;;;;;;;55.90;28.63;;;;;;;;;;5130879;27;20040;-63
2022/01/25 08:45:06;;;;;;;61.83;30.60;;;;;;;;;;5114488;27;20058;-63
2022/01/25 08:47:32;;;;;;;62.90;30.60;;;;;;;;;;5128131;27;20046;-64
2022/01/25 08:49:58;;;;;;;62.30;31.85;;;;;;;;;;5132408;27;20156;-63
2022/01/25 08:52:25;;;;;;;60.97;31.05;;;;;;;;;;5130012;27;20060;-63
2022/01/25 08:54:51;;;;;;;64.90;31.45;;;;;;;;;;5117127;27;20039;-63
2022/01/25 08:57:17;;;;;;;67.80;31.40;;;;;;;;;;5131087;27;20035;-63
2022/01/25 08:59:43;;;;;;;63.03;30.98;;;;;;;;;;5131135;27;20051;-63
2022/01/25 09:02:09;;;;;;;67.45;33.08;;;;;;;;;;5132558;27;20039;-63
2022/01/25 09:04:35;;;;;;;64.78;31.73;;;;;;;;;;5131356;27;20385;-64
2022/01/25 09:07:01;;;;;;;66.32;31.98;;;;;;;;;;5119853;27;20138;-63
2022/01/25 09:09:28;;;;;;;66.45;31.20;;;;;;;;;;5131760;27;20046;-62
2022/01/25 09:11:56;;;;;;;63.33;30.42;;;;;;;;;;5132980;27;20039;-63
2022/01/25 09:14:22;;;;;;;63.83;30.55;;;;;;;;;;5131890;27;20039;-62
2022/01/25 09:16:48;;;;;;;66.75;31.45;;;;;;;;;;5132446;27;20118;-62
2022/01/25 09:19:16;;;;;;;63.88;30.65;;;;;;;;;;5130172;27;20237;-62
2022/01/25 09:21:42;;;;;;;60.13;29.85;;;;;;;;;;5132337;27;20481;-64
2022/01/25 09:24:08;;;;;;;57.53;29.70;;;;;;;;;;5129268;27;20115;-63
2022/01/25 09:26:34;;;;;;;62.00;30.38;;;;;;;;;;5133626;27;20047;-63
2022/01/25 09:29:00;;;;;;;60.55;29.85;;;;;;;;;;5130959;27;20295;-63
2022/01/25 09:31:27;;;;;;;68.55;32.78;;;;;;;;;;5132310;27;20033;-63
2022/01/25 09:33:53;;;;;;;64.28;31.20;;;;;;;;;;5132125;27;20031;-64
2022/01/25 09:36:19;;;;;;;61.08;29.42;;;;;;;;;;5115080;27;20043;-64
2022/01/25 09:38:45;;;;;;;64.13;30.40;;;;;;;;;;5132521;27;20039;-64
2022/01/25 09:41:12;;;;;;;62.63;30.83;;;;;;;;;;5132793;27;20077;-63
2022/01/25 09:43:38;;;;;;;64.50;30.85;;;;;;;;;;5131940;27;20035;-64
2022/01/25 09:46:04;;;;;;;62.88;30.48;;;;;;;;;;5132243;27;20410;-62
2022/01/25 09:48:30;;;;;;;64.35;31.42;;;;;;;;;;5130023;27;20034;-63
2022/01/25 09:50:57;;;;;;;61.65;29.55;;;;;;;;;;5132195;27;20113;-62
2022/01/25 09:53:25;;;;;;;66.38;31.88;;;;;;;;;;5131907;27;20173;-63
2022/01/25 09:55:51;;;;;;;65.65;30.92;;;;;;;;;;5126717;27;20031;-66
2022/01/25 09:58:17;;;;;;;66.13;30.92;;;;;;;;;;5129702;27;20489;-62
2022/01/25 10:00:45;;;;;;;62.17;29.33;;;;;;;;;;5120759;27;20212;-63
2022/01/25 10:03:18;;;;;;;60.05;29.67;;;;;;;;;;5131275;27;20122;-63
2022/01/25 10:05:45;;;;;;;63.58;29.73;;;;;;;;;;5128064;27;20132;-63
2022/01/25 10:08:13;;;;;;;64.03;30.10;;;;;;;;;;5129584;27;20100;-61
2022/01/25 10:10:41;;;;;;;65.00;30.88;;;;;;;;;;5129991;27;20027;-63
2022/01/25 10:13:10;;;;;;;67.63;30.90;;;;;;;;;;5126411;27;20046;-62
2022/01/25 10:15:37;;;;;;;70.05;31.35;;;;;;;;;;5129880;27;20118;-62
2022/01/25 10:18:04;;;;;;;64.15;29.92;;;;;;;;;;5130378;27;20042;-63
2022/01/25 10:20:38;;;;;;;66.93;30.50;;;;;;;;;;5131422;27;20153;-62
2022/01/25 10:23:09;;;;;;;63.05;29.65;;;;;;;;;;5127962;27;20041;-62
2022/01/25 10:25:37;;;;;;;62.80;29.17;;;;;;;;;;5129369;27;20035;-62
2022/01/25 10:28:10;;;;;;;58.88;28.70;;;;;;;;;;5131010;27;20031;-62
2022/01/25 10:30:37;;;;;;;63.00;29.75;;;;;;;;;;5130045;27;20066;-61
2022/01/25 10:33:15;;;;;;;65.05;31.27;;;;;;;;;;5130022;27;20034;-62
2022/01/25 10:35:41;;;;;;;60.75;28.75;;;;;;;;;;5129714;27;20035;-62
2022/01/25 10:38:17;;;;;;;65.97;31.20;;;;;;;;;;5129715;27;20070;-63
2022/01/25 10:40:43;;;;;;;61.45;30.60;;;;;;;;;;5129006;27;20083;-62
2022/01/25 10:43:13;;;;;;;64.30;30.02;;;;;;;;;;5127671;27;20114;-63
2022/01/25 10:45:39;;;;;;;64.97;31.02;;;;;;;;;;5129613;27;20054;-62
2022/01/25 10:48:05;;;;;;;67.82;30.60;;;;;;;;;;5129837;27;20043;-62
2022/01/25 10:50:36;;;;;;;63.15;29.42;;;;;;;;;;5128294;27;20031;-61
2022/01/25 10:53:07;;;;;;;65.32;30.02;;;;;;;;;;5126532;27;20469;-62
2022/01/25 10:55:40;;;;;;;64.40;30.33;;;;;;;;;;5128535;28;20043;-60
2022/01/25 10:58:07;;;;;;;62.25;30.00;;;;;;;;;;5128891;28;20043;-62
2022/01/25 11:00:35;;;;;;;66.40;30.42;;;;;;;;;;5125272;27;20062;-61
2022/01/25 11:03:02;;;;;;;59.95;29.63;;;;;;;;;;5129466;28;20035;-62
2022/01/25 11:05:30;;;;;;;61.78;29.00;;;;;;;;;;5123903;28;20043;-61
2022/01/25 11:07:57;;;;;;;59.92;30.15;;;;;;;;;;5130638;28;20059;-62
2022/01/25 11:10:23;;;;;;;63.85;30.42;;;;;;;;;;5126398;28;20067;-62
2022/01/25 11:13:03;;;;;;;66.47;31.33;;;;;;;;;;5130589;28;20027;-62
2022/01/25 11:15:29;;;;;;;66.90;30.45;;;;;;;;;;5125531;27;20039;-62
2022/01/25 11:17:55;;;;;;;63.10;29.42;;;;;;;;;;5129072;28;20374;-62
2022/01/25 11:20:21;;;;;;;57.17;28.77;;;;;;;;;;5127327;28;20043;-63
2022/01/25 11:22:47;;;;;;;63.70;29.67;;;;;;;;;;5127752;28;20435;-62
2022/01/25 11:25:16;;;;;;;61.85;28.92;;;;;;;;;;5127123;28;20731;-62
2022/01/25 11:27:43;;;;;;;61.35;27.85;;;;;;;;;;5128962;28;20066;-61
2022/01/25 11:30:11;;;;;;;60.80;28.55;;;;;;;;;;5128394;27;20383;-61
2022/01/25 11:32:40;;;;;;;60.92;29.08;;;;;;;;;;5125042;28;20699;-60
2022/01/25 11:35:07;;;;;;;59.08;27.65;;;;;;;;;;5128690;27;20047;-61
2022/01/25 11:37:38;;;;;;;60.28;29.00;;;;;;;;;;5131306;27;20039;-61
2022/01/25 11:40:04;;;;;;;59.95;29.38;;;;;;;;;;5130443;27;20047;-60
2022/01/25 11:42:36;;;;;;;60.78;28.75;;;;;;;;;;5130819;27;20125;-62
2022/01/25 11:45:03;;;;;;;59.97;28.95;;;;;;;;;;5130200;28;20035;-62
2022/01/25 11:47:34;;;;;;;66.70;32.17;;;;;;;;;;5128591;27;20035;-63
2022/01/25 11:50:02;;;;;;;61.05;28.77;;;;;;;;;;5128162;28;20027;-62
2022/01/25 11:52:29;;;;;;;60.30;28.65;;;;;;;;;;5133281;27;20084;-63
2022/01/25 11:55:15;;;;;;;64.68;29.65;;;;;;;;;;5136614;27;20038;-61
2022/01/25 11:57:58;;;;;;;57.95;28.60;;;;;;;;;;5131799;27;20032;-61
2022/01/25 12:00:24;;;;;;;;;;;;;;;;;;5133486;27;20055;-64
2022/01/25 12:02:51;;;;;;;61.97;29.02;;;;;;;;;;5134491;27;20376;-63
2022/01/25 12:05:24;;;;;;;64.53;28.88;;;;;;;;;;5137747;27;20042;-62
2022/01/25 12:08:06;;;;;;;60.03;29.05;;;;;;;;;;5133726;27;20382;-61
2022/01/25 12:10:38;;;;;;;58.65;27.00;;;;;;;;;;5134937;27;20046;-62
2022/01/25 12:13:14;;;;;;;65.73;31.50;;;;;;;;;;5130984;27;20074;-61
2022/01/25 12:15:41;;;;;;;64.63;29.75;;;;;;;;;;5120618;27;20376;-62
2022/01/25 12:18:30;;;;;;;61.28;29.48;;;;;;;;;;5133728;27;20070;-62
2022/01/25 12:20:56;;;;;;;58.20;28.25;;;;;;;;;;5111366;28;20051;-61
2022/01/25 12:23:43;;;;;;;58.88;28.42;;;;;;;;;;5094294;28;20506;-63
2022/01/25 12:26:14;;;;;;;58.80;29.15;;;;;;;;;;5111046;28;20391;-62
2022/01/25 12:28:45;;;;;;;64.53;29.17;;;;;;;;;;5110658;28;20520;-62
2022/01/25 12:31:15;;;;;;;60.08;29.45;;;;;;;;;;5110813;28;20702;-64
2022/01/25 12:33:42;;;;;;;58.42;28.00;;;;;;;;;;5110781;28;20096;-63
2022/01/25 12:36:09;;;;;;;59.83;28.48;;;;;;;;;;5111021;28;20443;-63
2022/01/25 12:38:43;;;;;;;64.35;29.45;;;;;;;;;;5110780;28;20114;-61
2022/01/25 12:41:18;;;;;;;58.67;29.33;;;;;;;;;;5110901;28;20067;-62
2022/01/25 12:43:53;;;;;;;56.38;26.08;;;;;;;;;;5110446;28;20044;-63
2022/01/25 12:46:19;;;;;;;62.35;29.67;;;;;;;;;;5110769;28;20104;-62
2022/01/25 12:48:53;;;;;;;62.03;29.10;;;;;;;;;;5110338;28;20028;-62
2022/01/25 12:51:21;;;;;;;61.22;28.35;;;;;;;;;;5110628;28;20075;-63
2022/01/25 12:53:48;;;;;;;63.75;28.33;;;;;;;;;;5110228;28;20043;-61
2022/01/25 12:56:19;;;;;;;61.03;28.30;;;;;;;;;;5110527;28;20086;-62
2022/01/25 12:58:46;;;;;;;58.75;27.88;;;;;;;;;;5116766;27;20051;-62
2022/01/25 13:01:14;;;;;;;59.03;27.75;;;;;;;;;;5133256;27;20047;-63
2022/01/25 13:03:42;;;;;;;55.42;26.60;;;;;;;;;;5132671;27;20492;-62
2022/01/25 13:06:08;;;;;;;59.53;27.52;;;;;;;;;;5133193;27;20050;-62
2022/01/25 13:08:36;;;;;;;60.40;26.48;;;;;;;;;;5133062;27;20082;-62
2022/01/25 13:11:19;;;;;;;59.80;26.88;;;;;;;;;;5114880;27;20130;-62
2022/01/25 13:14:17;;;;;;;57.45;26.83;;;;;;;;;;5133040;27;20049;-62
2022/01/25 13:16:43;;;;;;;58.35;26.63;;;;;;;;;;5133108;27;20042;-62
2022/01/25 13:19:10;;;;;;;59.28;26.27;;;;;;;;;;5133015;27;20088;-63
2022/01/25 13:21:37;;;;;;;59.15;26.08;;;;;;;;;;5133176;27;20374;-62
2022/01/25 13:24:07;;;;;;;57.83;26.50;;;;;;;;;;5132935;27;20378;-62
2022/01/25 13:26:39;;;;;;;55.80;25.73;;;;;;;;;;5132830;27;20043;-63
2022/01/25 13:30:39;;;;;;;52.70;26.30;;;;;;;;;;5133068;27;20065;-63
2022/01/25 13:32:10;;;;;;;54.90;25.70;;;;;;;;;;5132392;27;20067;-62
2022/01/25 13:34:36;;;;;;;52.13;25.55;;;;;;;;;;5132879;27;20042;-62
2022/01/25 13:37:03;;;;;;;56.85;26.38;;;;;;;;;;5132473;27;20042;-62
2022/01/25 13:39:30;;;;;;;54.80;26.33;;;;;;;;;;5115730;27;20042;-61
2022/01/25 13:42:09;;;;;;;61.63;27.00;;;;;;;;;;5131514;27;20117;-62
2022/01/25 13:47:20;;;;;;;57.47;25.55;;;;;;;;;;5132554;27;20454;-62
2022/01/25 13:49:48;;;;;;;57.60;26.58;;;;;;;;;;5132238;27;20039;-63
2022/01/25 13:52:14;;;;;;;58.38;27.63;;;;;;;;;;5132207;27;20038;-62
2022/01/25 13:54:40;;;;;;;52.20;23.48;;;;;;;;;;5132483;27;20046;-61
2022/01/25 13:57:10;;;;;;;55.20;26.63;;;;;;;;;;5132073;27;20044;-61
2022/01/25 13:59:36;;;;;;;52.25;24.75;;;;;;;;;;5132352;27;20051;-62
2022/01/25 14:02:03;;;;;;;55.25;25.05;;;;;;;;;;5131916;27;20042;-62
2022/01/25 14:04:30;;;;;;;50.53;23.33;;;;;;;;;;5132562;27;20481;-62
2022/01/25 14:06:57;;;;;;;48.45;22.98;;;;;;;;;;5130214;27;20095;-62
2022/01/25 14:09:29;;;;;;;54.17;25.13;;;;;;;;;;5132176;27;20031;-62
2022/01/25 14:25:41;;;;;;;55.45;25.10;;;;;;;;;;5113698;27;20050;-61
2022/01/25 14:28:13;;;;;;;55.47;24.88;;;;;;;;;;5131959;27;20042;-61
2022/01/25 14:30:43;;;;;;;52.78;24.95;;;;;;;;;;5132165;27;20035;-61
2022/01/25 14:33:20;;;;;;;55.33;25.30;;;;;;;;;;5131806;27;20043;-63
2022/01/25 14:35:46;;;;;;;58.25;24.80;;;;;;;;;;5131935;27;20084;-62
2022/01/25 14:38:26;;;;;;;57.83;25.15;;;;;;;;;;5131409;27;20043;-62
2022/01/25 14:41:12;;;;;;;57.58;24.70;;;;;;;;;;5131907;27;20087;-61
2022/01/25 14:44:00;;;;;;;53.10;25.00;;;;;;;;;;5131763;27;20039;-61
2022/01/25 14:46:31;;;;;;;56.67;25.73;;;;;;;;;;5131554;27;20451;-62
2022/01/25 14:49:00;;;;;;;56.53;25.58;;;;;;;;;;5131650;27;20548;-62
2022/01/25 14:51:38;;;;;;;58.47;24.23;;;;;;;;;;5131508;27;20035;-63
2022/01/25 14:54:04;;;;;;;59.47;26.17;;;;;;;;;;5131531;27;20046;-62
2022/01/25 14:56:31;;;;;;;62.10;27.23;;;;;;;;;;5131633;28;20031;-61
2022/01/25 15:01:32;;;;;;;54.50;24.50;;;;;;;;;;5131994;28;20552;-62
2022/01/25 15:03:58;;;;;;;56.05;26.25;;;;;;;;;;5131641;28;20500;-62
2022/01/25 15:06:24;;;;;;;58.08;24.70;;;;;;;;;;5131243;28;20179;-61
2022/01/25 15:08:51;;;;;;;55.67;23.90;;;;;;;;;;5131555;28;20403;-61
2022/01/25 15:11:18;;;;;;;55.17;24.23;;;;;;;;;;5131165;28;20046;-62
2022/01/25 15:13:44;;;;;;;58.17;23.77;;;;;;;;;;5131429;28;20485;-63
2022/01/25 15:16:11;;;;;;;56.72;23.83;;;;;;;;;;5131140;27;20047;-61
2022/01/25 15:18:40;;;;;;;49.95;22.90;;;;;;;;;;5131325;27;20122;-61
2022/01/25 15:21:08;;;;;;;49.85;23.20;;;;;;;;;;5131393;27;20497;-62
2022/01/25 15:23:35;;;;;;;50.83;21.83;;;;;;;;;;5131223;28;20043;-63
2022/01/25 15:26:03;;;;;;;52.03;24.85;;;;;;;;;;5113541;28;20051;-63
2022/01/25 15:28:41;;;;;;;55.33;24.50;;;;;;;;;;5115807;27;20032;-62
2022/01/25 15:31:09;;;;;;;54.47;23.55;;;;;;;;;;5135528;27;20082;-63
2022/01/25 15:33:36;;;;;;;56.83;25.58;;;;;;;;;;5135217;27;20031;-63
2022/01/25 15:36:03;;;;;;;58.15;24.70;;;;;;;;;;5117069;27;20046;-62
2022/01/25 15:38:29;;;;;;;56.10;25.20;;;;;;;;;;5133795;27;20122;-61
2022/01/25 15:40:55;;;;;;;58.08;25.50;;;;;;;;;;5118074;27;20085;-62
2022/01/25 15:43:23;;;;;;;58.65;26.13;;;;;;;;;;5134065;27;20122;-62
2022/01/25 15:46:18;;;;;;;61.55;24.60;;;;;;;;;;5135239;27;20158;-62
2022/01/25 15:48:41;;;;;;;54.25;24.35;;;;;;;;;;5127622;27;20043;-63
2022/01/25 15:51:07;;;;;;;59.92;26.55;;;;;;;;;;5134926;27;20043;-63
2022/01/25 15:53:33;;;;;;;55.28;24.77;;;;;;;;;;5134657;27;20438;-63
2022/01/25 15:55:59;;;;;;;56.97;25.45;;;;;;;;;;5128155;27;20039;-63
2022/01/25 15:58:25;;;;;;;61.53;25.63;;;;;;;;;;5132996;27;20050;-63
2022/01/25 16:00:51;;;;;;;54.25;24.35;;;;;;;;;;5134450;27;20054;-63
2022/01/25 16:03:18;;;;;;;58.83;25.75;;;;;;;;;;5134649;27;20047;-62
2022/01/25 16:05:44;;;;;;;53.65;24.73;;;;;;;;;;5134609;27;20039;-62
2022/01/25 16:08:11;;;;;;;61.05;24.48;;;;;;;;;;5134561;27;20532;-62
2022/01/25 16:10:40;;;;;;;56.38;24.33;;;;;;;;;;5115616;27;20042;-63
2022/01/25 16:13:07;;;;;;;59.13;25.15;;;;;;;;;;5134540;27;20039;-62
2022/01/25 16:15:33;;;;;;;62.58;27.33;;;;;;;;;;5133746;27;20039;-63
2022/01/25 16:17:59;;;;;;;55.67;25.42;;;;;;;;;;5118031;27;20126;-62
2022/01/25 16:20:27;;;;;;;57.45;25.17;;;;;;;;;;5131900;27;20131;-63
2022/01/25 16:22:53;;;;;;;60.40;25.00;;;;;;;;;;5134445;27;20386;-62
2022/01/25 16:25:19;;;;;;;61.45;24.63;;;;;;;;;;5115572;27;20043;-63
2022/01/25 16:27:45;;;;;;;58.35;24.70;;;;;;;;;;5134263;27;20042;-61
2022/01/25 16:30:12;;;;;;;58.10;24.30;;;;;;;;;;5134227;27;20035;-62
2022/01/25 16:32:42;;;;;;;58.13;24.70;;;;;;;;;;5133549;27;20041;-61